Time;durP1;ratioP1;P1;durP2;ratioP2;P2;SDS_P1;SDS_P2;PMS_P1;PMS_P2;Temp;Humidity;BMP_temperature;BMP_pressure;BME280_temperature;BME280_humidity;BME280_pressure;Samples;Min_cycle;Max_cycle;Signal;HPM_P1;HPM_P2
2022/04/05 00:01:36;;;;;;;14.73;7.88;;;10.90;70.90;;;;;;5073204;28;20099;-72
2022/04/05 00:04:02;;;;;;;15.23;8.07;;;10.90;71.10;;;;;;5073059;28;20112;-72
2022/04/05 00:06:28;;;;;;;18.13;8.77;;;10.90;70.90;;;;;;5073082;28;20025;-72
2022/04/05 00:08:54;;;;;;;15.25;8.30;;;10.90;71.00;;;;;;5073330;28;20032;-71
2022/04/05 00:11:19;;;;;;;17.77;8.73;;;10.80;71.50;;;;;;5073170;28;20024;-72
2022/04/05 00:13:45;;;;;;;18.10;9.45;;;10.80;71.70;;;;;;5072965;28;20469;-71
2022/04/05 00:16:11;;;;;;;14.50;9.05;;;10.80;72.20;;;;;;5072981;28;20397;-72
2022/04/05 00:18:38;;;;;;;16.60;10.55;;;10.70;71.80;;;;;;5072885;28;20133;-72
2022/04/05 00:21:05;;;;;;;18.42;9.68;;;10.70;72.60;;;;;;5072892;28;20032;-72
2022/04/05 00:23:30;;;;;;;19.38;10.07;;;10.60;72.40;;;;;;5072773;28;20477;-71
2022/04/05 00:25:56;;;;;;;14.98;9.23;;;10.60;72.40;;;;;;5072895;28;20032;-73
2022/04/05 00:28:22;;;;;;;17.50;10.68;;;10.60;72.30;;;;;;5072863;28;20013;-72
2022/04/05 00:30:47;;;;;;;18.52;9.95;;;10.60;72.70;;;;;;5073035;28;20024;-71
2022/04/05 00:33:13;;;;;;;16.90;10.30;;;10.60;72.40;;;;;;5073026;28;20031;-71
2022/04/05 00:35:39;;;;;;;19.40;9.57;;;10.50;72.90;;;;;;5073087;28;20086;-73
2022/04/05 00:38:04;;;;;;;17.25;10.23;;;10.50;72.80;;;;;;5072849;28;20048;-71
2022/04/05 00:40:30;;;;;;;15.35;10.48;;;10.50;72.60;;;;;;5072952;28;20017;-72
2022/04/05 00:42:57;;;;;;;14.02;9.73;;;10.40;72.80;;;;;;5073063;28;20439;-74
2022/04/05 00:45:22;;;;;;;19.55;9.68;;;10.40;72.90;;;;;;5073573;28;20051;-74
2022/04/05 00:47:50;;;;;;;15.35;9.48;;;10.40;73.60;;;;;;5073386;28;20032;-72
2022/04/05 00:50:22;;;;;;;16.88;10.05;;;10.40;73.40;;;;;;5072642;28;20397;-72
2022/04/05 00:52:49;;;;;;;17.17;8.60;;;10.40;73.40;;;;;;5076670;28;20052;-72
2022/04/05 00:55:18;;;;;;;17.27;9.40;;;10.30;73.70;;;;;;5076591;28;20108;-73
2022/04/05 00:57:46;;;;;;;13.55;8.30;;;10.30;73.70;;;;;;5076823;28;20035;-72
2022/04/05 01:00:14;;;;;;;18.40;9.27;;;10.30;73.90;;;;;;5076614;28;20472;-73
2022/04/05 01:02:40;;;;;;;19.35;8.90;;;10.30;74.10;;;;;;5076446;28;20482;-73
2022/04/05 01:05:07;;;;;;;16.10;8.80;;;10.30;74.20;;;;;;5076729;28;20032;-71
2022/04/05 01:07:34;;;;;;;17.65;9.18;;;10.20;74.50;;;;;;5076511;28;20032;-71
2022/04/05 01:10:00;;;;;;;15.32;8.80;;;10.10;74.40;;;;;;5076577;28;20054;-71
2022/04/05 01:12:26;;;;;;;17.90;8.48;;;10.10;74.10;;;;;;5076503;28;20036;-71
2022/04/05 01:14:53;;;;;;;18.15;8.15;;;10.10;74.50;;;;;;5076327;28;20077;-71
2022/04/05 01:17:19;;;;;;;16.13;8.02;;;10.10;74.20;;;;;;5076232;28;20117;-71
2022/04/05 01:19:48;;;;;;;10.95;7.57;;;10.10;74.30;;;;;;5076152;28;20378;-70
2022/04/05 01:22:14;;;;;;;13.63;7.57;;;10.00;74.30;;;;;;5076225;28;20029;-72
2022/04/05 01:24:40;;;;;;;16.10;7.35;;;10.00;74.00;;;;;;5076147;28;20084;-72
2022/04/05 01:27:06;;;;;;;18.40;7.68;;;10.00;74.10;;;;;;5076040;28;20048;-70
2022/04/05 01:29:33;;;;;;;12.55;7.25;;;10.00;74.40;;;;;;5075979;28;20039;-72
2022/04/05 01:32:16;;;;;;;12.73;7.28;;;9.90;75.40;;;;;;5075970;28;20024;-71
2022/04/05 01:34:42;;;;;;;13.23;7.20;;;10.00;74.40;;;;;;5076021;28;20060;-71
2022/04/05 01:37:10;;;;;;;12.38;6.50;;;9.90;75.40;;;;;;5075795;28;20086;-71
2022/04/05 01:39:37;;;;;;;12.15;6.75;;;9.90;75.60;;;;;;5075890;28;20060;-72
2022/04/05 01:42:08;;;;;;;13.88;7.25;;;10.00;74.70;;;;;;5075805;28;20522;-70
2022/04/05 01:44:35;;;;;;;14.00;6.45;;;10.00;74.50;;;;;;5075676;28;20008;-70
2022/04/05 01:47:10;;;;;;;14.93;6.68;;;10.00;74.90;;;;;;5075965;28;20037;-72
2022/04/05 01:49:40;;;;;;;12.93;6.90;;;10.00;74.50;;;;;;5075765;28;20484;-71
2022/04/05 01:52:07;;;;;;;14.27;6.93;;;9.90;75.70;;;;;;5074366;28;20063;-72
2022/04/05 01:54:33;;;;;;;15.55;6.38;;;9.90;75.80;;;;;;5075351;28;20208;-73
2022/04/05 01:56:59;;;;;;;12.70;6.88;;;10.00;75.20;;;;;;5075554;28;20037;-71
2022/04/05 01:59:28;;;;;;;12.65;6.85;;;9.90;76.20;;;;;;5074130;28;20036;-73
2022/04/05 02:01:54;;;;;;;11.50;6.82;;;9.80;76.70;;;;;;5075065;28;20028;-72
2022/04/05 02:04:20;;;;;;;12.25;5.93;;;9.80;76.30;;;;;;5075218;28;20382;-71
2022/04/05 02:06:47;;;;;;;12.00;6.55;;;9.80;76.20;;;;;;5075279;28;20020;-72
2022/04/05 02:09:14;;;;;;;11.43;6.28;;;9.70;76.30;;;;;;5075356;28;20024;-70
2022/04/05 02:11:41;;;;;;;14.90;7.00;;;9.70;76.50;;;;;;5075195;28;20024;-72
2022/04/05 02:14:07;;;;;;;14.45;7.18;;;9.70;76.70;;;;;;5075231;28;20106;-71
2022/04/05 02:16:33;;;;;;;11.13;6.10;;;9.60;77.10;;;;;;5073931;28;20051;-72
2022/04/05 02:18:59;;;;;;;13.98;6.63;;;9.50;78.30;;;;;;5075205;28;20028;-73
2022/04/05 02:21:25;;;;;;;12.73;6.15;;;9.50;78.40;;;;;;5075274;28;20025;-72
2022/04/05 02:23:50;;;;;;;11.35;6.15;;;9.50;78.40;;;;;;5074855;28;20032;-71
2022/04/05 02:26:16;;;;;;;14.05;6.78;;;9.50;79.50;;;;;;5075012;28;20097;-72
2022/04/05 02:28:42;;;;;;;13.32;6.13;;;9.40;78.70;;;;;;5074892;28;20082;-71
2022/04/05 02:31:08;;;;;;;10.23;6.18;;;9.30;79.10;;;;;;5073555;28;20028;-72
2022/04/05 02:33:34;;;;;;;13.15;6.22;;;9.30;79.50;;;;;;5074919;28;20103;-72
2022/04/05 02:36:00;;;;;;;14.18;6.50;;;9.30;80.00;;;;;;5074839;28;20032;-73
2022/04/05 02:38:26;;;;;;;10.85;6.40;;;9.30;80.30;;;;;;5074812;28;20473;-72
2022/04/05 02:40:52;;;;;;;13.23;6.03;;;9.20;81.00;;;;;;5074746;28;20515;-70
2022/04/05 02:43:18;;;;;;;11.05;6.35;;;9.20;81.20;;;;;;5073180;28;20024;-71
2022/04/05 02:45:43;;;;;;;10.60;6.35;;;9.20;81.00;;;;;;5074485;28;20056;-70
2022/04/05 02:48:09;;;;;;;18.90;7.53;;;9.20;81.30;;;;;;5074605;28;20047;-71
2022/04/05 02:50:35;;;;;;;12.00;6.50;;;9.20;81.20;;;;;;5074404;28;20032;-71
2022/04/05 02:53:01;;;;;;;13.93;6.78;;;9.10;82.00;;;;;;5074464;28;20389;-74
2022/04/05 02:55:27;;;;;;;13.05;6.88;;;9.10;82.40;;;;;;5073127;28;20024;-71
2022/04/05 02:57:52;;;;;;;12.25;6.18;;;9.00;82.50;;;;;;5074389;28;20028;-71
2022/04/05 03:00:19;;;;;;;14.30;6.25;;;9.00;82.60;;;;;;5074294;28;20025;-72
2022/04/05 03:02:45;;;;;;;12.25;6.55;;;9.00;82.80;;;;;;5074340;28;20084;-72
2022/04/05 03:05:13;;;;;;;10.65;6.15;;;9.00;82.90;;;;;;5074256;28;20028;-70
2022/04/05 03:07:40;;;;;;;12.95;6.65;;;9.00;83.60;;;;;;5074264;28;20026;-72
2022/04/05 03:10:09;;;;;;;17.23;7.47;;;9.00;83.70;;;;;;5072853;28;20536;-71
2022/04/05 03:12:35;;;;;;;11.90;6.95;;;8.90;83.70;;;;;;5074099;28;20063;-70
2022/04/05 03:15:06;;;;;;;13.45;6.90;;;8.90;83.60;;;;;;5073408;28;20549;-72
2022/04/05 03:17:32;;;;;;;14.10;7.03;;;8.90;83.70;;;;;;5074142;28;20385;-72
2022/04/05 03:20:03;;;;;;;11.93;7.05;;;8.80;83.90;;;;;;5073896;28;20150;-72
2022/04/05 03:22:29;;;;;;;15.52;7.10;;;8.80;84.70;;;;;;5072976;28;20032;-73
2022/04/05 03:24:55;;;;;;;10.75;6.47;;;8.90;84.20;;;;;;5073734;28;20024;-72
2022/04/05 03:27:21;;;;;;;14.95;6.55;;;8.90;83.80;;;;;;5073879;28;20024;-70
2022/04/05 03:29:46;;;;;;;19.05;7.25;;;8.80;83.80;;;;;;5073975;28;20095;-71
2022/04/05 03:32:12;;;;;;;11.48;6.05;;;8.80;84.20;;;;;;5073897;28;20025;-71
2022/04/05 03:34:39;;;;;;;11.85;6.22;;;8.70;84.30;;;;;;5074277;28;20354;-73
2022/04/05 03:37:05;;;;;;;10.32;6.32;;;8.70;84.90;;;;;;5074432;28;20476;-71
2022/04/05 03:39:31;;;;;;;14.43;6.18;;;8.70;84.90;;;;;;5074416;28;20461;-72
2022/04/05 03:41:57;;;;;;;11.93;6.38;;;8.70;84.60;;;;;;5073932;28;20033;-72
2022/04/05 03:44:24;;;;;;;17.88;7.65;;;8.70;84.90;;;;;;5073781;28;20171;-72
2022/04/05 03:46:51;;;;;;;12.65;5.80;;;8.60;84.60;;;;;;5073527;28;20044;-72
2022/04/05 03:49:17;;;;;;;11.23;5.93;;;8.70;84.90;;;;;;5073411;28;20111;-72
2022/04/05 03:51:43;;;;;;;11.48;6.43;;;8.70;84.50;;;;;;5073643;28;20108;-71
2022/04/05 03:54:08;;;;;;;10.57;6.50;;;8.70;84.60;;;;;;5073500;28;20064;-72
2022/04/05 03:56:34;;;;;;;9.73;5.97;;;8.70;84.80;;;;;;5073228;28;20039;-72
2022/04/05 03:59:00;;;;;;;15.15;6.75;;;8.70;84.40;;;;;;5073245;28;20028;-70
2022/04/05 04:01:26;;;;;;;10.20;5.43;;;8.70;84.50;;;;;;5073208;28;20090;-71
2022/04/05 04:03:51;;;;;;;9.55;5.82;;;8.70;84.90;;;;;;5073046;28;20020;-71
2022/04/05 04:06:17;;;;;;;13.35;6.00;;;8.60;84.60;;;;;;5073343;28;20445;-72
2022/04/05 04:08:43;;;;;;;14.63;6.82;;;8.60;84.60;;;;;;5073370;28;20050;-73
2022/04/05 04:11:08;;;;;;;9.63;5.95;;;8.50;84.50;;;;;;5073221;28;20028;-72
2022/04/05 04:13:34;;;;;;;12.32;6.22;;;8.50;84.90;;;;;;5072985;28;20024;-73
2022/04/05 04:16:00;;;;;;;10.88;6.05;;;8.50;84.50;;;;;;5073001;28;20550;-72
2022/04/05 04:18:26;;;;;;;10.40;6.38;;;8.60;84.60;;;;;;5071709;28;20021;-73
2022/04/05 04:20:52;;;;;;;13.55;6.25;;;8.60;84.70;;;;;;5072987;28;20389;-72
2022/04/05 04:23:19;;;;;;;14.07;6.45;;;8.60;84.40;;;;;;5072929;28;20016;-72
2022/04/05 04:25:45;;;;;;;13.30;6.60;;;8.70;84.30;;;;;;5070719;28;20028;-71
2022/04/05 04:28:11;;;;;;;12.30;5.55;;;8.70;84.10;;;;;;5073014;28;20397;-72
2022/04/05 04:30:38;;;;;;;11.27;6.25;;;8.60;84.50;;;;;;5072945;28;20071;-72
2022/04/05 04:33:04;;;;;;;12.65;6.15;;;8.60;84.40;;;;;;5072836;28;20106;-72
2022/04/05 04:35:30;;;;;;;10.65;6.30;;;8.60;84.40;;;;;;5072804;28;20481;-72
2022/04/05 04:37:56;;;;;;;11.10;6.80;;;8.60;84.50;;;;;;5072862;28;20154;-72
2022/04/05 04:40:22;;;;;;;13.55;7.40;;;8.60;84.50;;;;;;5072810;28;20056;-73
2022/04/05 04:42:48;;;;;;;10.05;6.32;;;8.60;84.70;;;;;;5072853;28;20523;-73
2022/04/05 04:45:14;;;;;;;12.70;6.55;;;8.60;84.60;;;;;;5072666;28;20041;-72
2022/04/05 04:47:40;;;;;;;9.57;6.28;;;8.60;84.40;;;;;;5072861;28;20393;-72
2022/04/05 04:50:08;;;;;;;11.63;6.05;;;8.60;84.50;;;;;;5072595;28;20028;-73
2022/04/05 04:52:34;;;;;;;16.33;6.30;;;8.50;84.50;;;;;;5072643;28;20024;-71
2022/04/05 04:55:00;;;;;;;10.88;5.90;;;8.50;84.10;;;;;;5072458;28;20025;-75
2022/04/05 04:57:26;;;;;;;13.88;6.45;;;8.60;84.40;;;;;;5071520;28;20028;-72
2022/04/05 04:59:52;;;;;;;10.45;6.03;;;8.60;84.00;;;;;;5072954;28;20024;-72
2022/04/05 05:02:22;;;;;;;11.50;5.95;;;8.50;84.20;;;;;;5072973;28;20025;-72
2022/04/05 05:04:48;;;;;;;12.15;6.13;;;8.50;84.20;;;;;;5072949;28;20064;-73
2022/04/05 05:07:15;;;;;;;9.30;5.93;;;8.50;84.00;;;;;;5073140;28;20393;-73
2022/04/05 05:09:40;;;;;;;13.70;6.30;;;8.50;84.10;;;;;;5072794;28;20350;-73
2022/04/05 05:12:07;;;;;;;11.82;6.18;;;8.50;83.80;;;;;;5071437;28;20031;-70
2022/04/05 05:14:33;;;;;;;11.90;6.35;;;8.60;83.30;;;;;;5072617;28;20115;-71
2022/04/05 05:16:59;;;;;;;10.15;6.22;;;8.60;83.70;;;;;;5072866;28;20119;-72
2022/04/05 05:19:24;;;;;;;12.55;6.50;;;8.60;83.80;;;;;;5072973;28;20104;-73
2022/04/05 05:21:50;;;;;;;9.85;6.35;;;8.60;83.40;;;;;;5073085;28;20097;-73
2022/04/05 05:24:16;;;;;;;10.30;6.20;;;8.50;84.00;;;;;;5072835;28;20067;-74
2022/04/05 05:26:41;;;;;;;11.70;6.97;;;8.50;84.30;;;;;;5080633;28;20028;-72
2022/04/05 05:29:07;;;;;;;11.25;6.60;;;8.50;84.30;;;;;;5092991;28;20046;-70
2022/04/05 05:31:33;;;;;;;11.32;6.00;;;8.60;84.40;;;;;;5089579;28;20032;-74
2022/04/05 05:33:58;;;;;;;10.38;6.38;;;8.60;84.50;;;;;;5087817;28;20023;-73
2022/04/05 05:36:24;;;;;;;15.98;6.50;;;8.70;84.20;;;;;;5092916;28;20043;-74
2022/04/05 05:38:50;;;;;;;12.60;6.65;;;8.70;83.70;;;;;;5096111;28;20069;-73
2022/04/05 05:41:15;;;;;;;11.40;6.55;;;8.80;83.70;;;;;;5096509;28;20031;-72
2022/04/05 05:43:45;;;;;;;13.68;6.57;;;8.90;83.10;;;;;;5096301;28;20461;-71
2022/04/05 05:46:12;;;;;;;14.20;6.38;;;8.90;83.00;;;;;;5095887;28;20182;-73
2022/04/05 05:48:37;;;;;;;14.38;6.40;;;8.90;82.80;;;;;;5096230;28;20024;-72
2022/04/05 05:51:03;;;;;;;14.90;6.72;;;9.00;82.90;;;;;;5092547;28;20040;-72
2022/04/05 05:53:29;;;;;;;12.88;7.30;;;9.10;82.60;;;;;;5091167;28;20488;-72
2022/04/05 05:55:55;;;;;;;13.00;6.95;;;9.10;81.90;;;;;;5078477;28;20158;-74
2022/04/05 05:58:20;;;;;;;10.80;6.28;;;9.30;81.90;;;;;;5078437;28;20377;-72
2022/04/05 06:00:46;;;;;;;11.23;6.28;;;9.50;81.20;;;;;;5081393;28;20038;-73
2022/04/05 06:03:12;;;;;;;12.45;6.38;;;9.70;80.10;;;;;;5092602;28;20039;-73
2022/04/05 06:05:38;;;;;;;10.93;5.70;;;9.80;79.00;;;;;;5082234;28;20108;-71
2022/04/05 06:08:06;;;;;;;14.75;6.13;;;10.10;77.40;;;;;;5075599;28;20035;-70
2022/04/05 06:10:32;;;;;;;24.55;6.57;;;10.30;76.40;;;;;;5075578;28;20437;-71
2022/04/05 06:12:58;;;;;;;30.20;6.85;;;10.40;74.40;;;;;;5081001;28;20031;-72
2022/04/05 06:15:25;;;;;;;17.83;6.20;;;10.50;74.30;;;;;;5080553;28;20500;-70
2022/04/05 06:17:52;;;;;;;17.92;6.20;;;10.70;73.60;;;;;;5075098;28;20183;-70
2022/04/05 06:20:20;;;;;;;18.73;6.30;;;10.80;73.10;;;;;;5075386;28;20091;-70
2022/04/05 06:22:48;;;;;;;17.33;6.28;;;11.00;72.50;;;;;;5075146;28;20025;-70
2022/04/05 06:25:23;;;;;;;26.52;6.20;;;11.20;72.10;;;;;;5075038;28;20078;-72
2022/04/05 06:27:49;;;;;;;31.58;6.13;;;11.40;71.10;;;;;;5075032;28;20081;-71
2022/04/05 06:30:16;;;;;;;22.40;7.20;;;11.60;70.10;;;;;;5073741;28;20025;-70
2022/04/05 06:32:42;;;;;;;17.40;5.97;;;11.70;69.80;;;;;;5075191;28;20052;-71
2022/04/05 06:35:10;;;;;;;20.35;6.30;;;11.80;68.30;;;;;;5075445;28;20027;-71
2022/04/05 06:37:36;;;;;;;13.40;5.45;;;11.90;67.70;;;;;;5074597;28;20041;-71
2022/04/05 06:40:04;;;;;;;17.85;5.97;;;12.10;66.80;;;;;;5074592;28;20027;-70
2022/04/05 06:42:30;;;;;;;14.35;5.97;;;12.30;66.00;;;;;;5075237;28;20067;-71
2022/04/05 06:44:56;;;;;;;10.73;6.00;;;12.30;65.30;;;;;;5074754;28;20052;-73
2022/04/05 06:47:21;;;;;;;11.88;5.07;;;12.50;65.40;;;;;;5074879;28;20032;-70
2022/04/05 06:49:47;;;;;;;22.15;5.60;;;12.50;64.30;;;;;;5072497;28;20470;-72
2022/04/05 06:52:13;;;;;;;15.00;5.65;;;12.50;63.20;;;;;;5075133;28;20043;-71
2022/04/05 06:54:39;;;;;;;13.15;5.47;;;12.50;63.30;;;;;;5074518;28;20067;-69
2022/04/05 06:57:05;;;;;;;20.30;6.88;;;12.60;62.60;;;;;;5074580;28;20072;-72
2022/04/05 06:59:30;;;;;;;17.60;6.05;;;12.70;62.90;;;;;;5074806;28;20494;-71
2022/04/05 07:01:56;;;;;;;26.73;6.20;;;12.80;61.10;;;;;;5074713;28;20466;-72
2022/04/05 07:04:22;;;;;;;22.75;6.18;;;12.90;60.80;;;;;;5074190;28;20025;-71
2022/04/05 07:06:47;;;;;;;17.88;5.57;;;13.00;60.30;;;;;;5074943;28;20096;-72
2022/04/05 07:09:13;;;;;;;14.32;5.43;;;13.00;59.90;;;;;;5074687;28;20036;-72
2022/04/05 07:11:39;;;;;;;15.25;5.50;;;13.20;60.20;;;;;;5074374;28;20017;-71
2022/04/05 07:14:04;;;;;;;19.25;5.57;;;13.30;59.10;;;;;;5074183;28;20028;-71
2022/04/05 07:16:30;;;;;;;14.18;5.32;;;13.30;59.30;;;;;;5074227;28;20036;-70
2022/04/05 07:18:56;;;;;;;12.32;4.88;;;13.40;58.80;;;;;;5072695;28;20111;-71
2022/04/05 07:21:22;;;;;;;11.05;5.05;;;13.60;58.60;;;;;;5074544;28;20028;-71
2022/04/05 07:23:48;;;;;;;12.82;5.47;;;13.60;57.40;;;;;;5074182;28;20019;-71
2022/04/05 07:26:14;;;;;;;9.65;4.75;;;13.60;57.30;;;;;;5074821;28;20032;-72
2022/04/05 07:28:40;;;;;;;16.60;6.15;;;13.60;57.10;;;;;;5074989;28;20074;-71
2022/04/05 07:31:05;;;;;;;18.17;5.05;;;13.60;56.90;;;;;;5075162;28;20141;-71
2022/04/05 07:33:31;;;;;;;17.38;5.20;;;13.70;57.00;;;;;;5073825;28;20414;-71
2022/04/05 07:35:57;;;;;;;11.40;4.30;;;13.80;56.50;;;;;;5073205;28;20437;-72
2022/04/05 07:38:24;;;;;;;13.23;5.20;;;13.70;55.80;;;;;;5073506;28;20050;-72
2022/04/05 07:40:50;;;;;;;11.98;5.07;;;13.70;56.00;;;;;;5073255;28;20103;-70
2022/04/05 07:43:18;;;;;;;12.50;4.95;;;13.80;56.00;;;;;;5073268;28;20438;-71
2022/04/05 07:45:44;;;;;;;9.18;5.22;;;13.70;55.50;;;;;;5073026;28;20135;-72
2022/04/05 07:48:11;;;;;;;11.27;4.68;;;13.80;55.10;;;;;;5073292;28;20021;-72
2022/04/05 07:50:37;;;;;;;12.77;5.22;;;13.80;54.40;;;;;;5073394;28;20032;-71
2022/04/05 07:53:02;;;;;;;26.08;5.93;;;13.80;54.80;;;;;;5073154;28;20063;-72
2022/04/05 07:55:28;;;;;;;18.77;5.38;;;13.80;54.10;;;;;;5072997;28;20453;-72
2022/04/05 07:57:54;;;;;;;10.00;5.00;;;13.80;54.00;;;;;;5073034;28;20072;-72
2022/04/05 08:00:23;;;;;;;13.90;4.78;;;13.90;53.50;;;;;;5072820;28;20369;-73
2022/04/05 08:02:50;;;;;;;17.17;4.60;;;14.00;54.00;;;;;;5073129;28;20124;-72
2022/04/05 08:05:16;;;;;;;9.90;5.07;;;14.00;54.30;;;;;;5072641;28;20039;-71
2022/04/05 08:07:42;;;;;;;11.35;5.35;;;13.90;53.20;;;;;;5072873;28;20021;-72
2022/04/05 08:10:09;;;;;;;9.80;4.75;;;13.80;53.90;;;;;;5072612;28;20032;-72
2022/04/05 08:12:39;;;;;;;11.35;4.97;;;13.80;53.50;;;;;;5072800;28;20446;-72
2022/04/05 08:15:06;;;;;;;12.52;5.80;;;13.70;53.30;;;;;;5072482;28;20473;-72
2022/04/05 08:17:31;;;;;;;8.18;5.20;;;13.70;54.00;;;;;;5072641;28;20374;-72
2022/04/05 08:19:57;;;;;;;38.55;7.97;;;13.70;54.00;;;;;;5072532;28;20020;-72
2022/04/05 08:22:23;;;;;;;28.80;6.38;;;13.60;52.50;;;;;;5072627;28;20032;-73
2022/04/05 08:24:48;;;;;;;84.53;10.23;;;13.60;53.60;;;;;;5072665;28;20012;-71
2022/04/05 08:27:14;;;;;;;18.88;5.78;;;13.60;53.50;;;;;;5072667;28;20036;-71
2022/04/05 08:29:41;;;;;;;10.80;4.70;;;13.70;53.80;;;;;;5072333;28;20450;-72
2022/04/05 08:32:07;;;;;;;16.38;5.68;;;13.70;53.30;;;;;;5072630;28;20020;-72
2022/04/05 08:34:33;;;;;;;15.38;5.75;;;13.70;52.40;;;;;;5072389;28;20032;-72
2022/04/05 08:36:59;;;;;;;13.55;4.80;;;13.80;52.50;;;;;;5072493;28;20087;-72
2022/04/05 08:39:28;;;;;;;10.02;4.70;;;13.80;52.40;;;;;;5072633;28;20021;-70
2022/04/05 08:41:55;;;;;;;11.55;4.75;;;13.90;52.00;;;;;;5072350;28;20105;-72
2022/04/05 08:44:23;;;;;;;10.57;5.10;;;13.80;50.90;;;;;;5072308;28;20013;-71
2022/04/05 08:46:51;;;;;;;8.55;4.78;;;13.90;51.20;;;;;;5072172;28;20132;-72
2022/04/05 08:49:18;;;;;;;13.75;4.40;;;13.90;51.00;;;;;;5072456;28;20092;-72
2022/04/05 08:51:44;;;;;;;11.68;5.20;;;14.00;51.00;;;;;;5072869;28;20028;-72
2022/04/05 08:54:10;;;;;;;11.65;5.45;;;14.00;50.60;;;;;;5072391;28;20147;-72
2022/04/05 08:56:36;;;;;;;12.73;4.65;;;14.00;51.10;;;;;;5072267;28;20371;-70
2022/04/05 08:59:01;;;;;;;10.55;4.38;;;14.20;51.10;;;;;;5072323;28;20013;-72
2022/04/05 09:01:29;;;;;;;22.38;6.15;;;14.20;50.60;;;;;;5072220;28;20032;-71
2022/04/05 09:03:56;;;;;;;8.00;3.75;;;14.20;50.90;;;;;;5070982;28;20021;-71
2022/04/05 09:06:33;;;;;;;10.43;4.38;;;14.20;49.90;;;;;;5072104;28;20021;-71
2022/04/05 09:09:10;;;;;;;8.20;3.80;;;14.20;49.70;;;;;;5072401;28;20043;-73
2022/04/05 09:11:41;;;;;;;14.30;4.75;;;14.20;49.20;;;;;;5070728;28;20033;-71
2022/04/05 09:14:07;;;;;;;10.50;3.70;;;14.20;48.80;;;;;;5075777;28;20024;-72
2022/04/05 09:16:33;;;;;;;6.90;3.40;;;14.20;48.80;;;;;;5076394;28;20033;-73
2022/04/05 09:19:11;;;;;;;4.88;2.95;;;14.30;48.20;;;;;;5076071;28;20396;-70
2022/04/05 09:21:54;;;;;;;11.27;3.63;;;14.30;47.20;;;;;;5076024;28;20025;-71
2022/04/05 09:24:20;;;;;;;12.23;4.07;;;14.40;47.10;;;;;;5075655;28;20025;-72
2022/04/05 09:26:46;;;;;;;13.27;4.30;;;14.50;46.70;;;;;;5075379;28;20025;-73
2022/04/05 09:29:13;;;;;;;6.90;3.88;;;14.50;47.30;;;;;;5075289;28;20028;-73
2022/04/05 09:31:48;;;;;;;7.60;3.42;;;14.60;47.10;;;;;;5075691;28;20028;-74
2022/04/05 09:34:19;;;;;;;9.60;3.90;;;14.70;46.50;;;;;;5075413;28;20043;-72
2022/04/05 09:36:48;;;;;;;10.77;3.83;;;14.70;46.80;;;;;;5075355;28;20047;-73
2022/04/05 09:39:17;;;;;;;10.80;3.80;;;14.80;46.40;;;;;;5075690;28;20070;-73
2022/04/05 09:42:00;;;;;;;8.07;3.85;;;14.90;46.80;;;;;;5075457;28;20102;-70
2022/04/05 09:44:35;;;;;;;11.25;4.15;;;15.10;46.60;;;;;;5075301;28;20030;-72
2022/04/05 09:47:03;;;;;;;13.77;4.80;;;15.10;46.20;;;;;;5075337;28;20059;-71
2022/04/05 09:49:38;;;;;;;35.85;5.35;;;15.20;46.20;;;;;;5075175;28;20439;-71
2022/04/05 09:52:22;;;;;;;14.02;3.72;;;15.20;46.20;;;;;;5075371;28;20362;-71
2022/04/05 09:54:48;;;;;;;8.73;3.65;;;15.40;45.90;;;;;;5074930;28;20029;-73
2022/04/05 09:57:13;;;;;;;5.45;2.72;;;15.50;44.80;;;;;;5074148;28;20101;-71
2022/04/05 09:59:39;;;;;;;5.05;2.47;;;15.50;44.70;;;;;;5075202;28;20063;-72
2022/04/05 10:02:15;;;;;;;7.53;2.83;;;15.50;42.40;;;;;;5075349;28;20056;-71
2022/04/05 10:05:07;;;;;;;4.78;1.60;;;15.60;41.50;;;;;;5075324;28;20029;-71
2022/04/05 10:07:34;;;;;;;8.65;2.13;;;15.70;39.20;;;;;;5074860;28;20491;-72
2022/04/05 10:10:03;;;;;;;8.10;3.08;;;15.80;40.90;;;;;;5074772;28;20438;-72
2022/04/05 10:12:28;;;;;;;8.27;2.00;;;15.80;39.80;;;;;;5075003;28;20103;-72
2022/04/05 10:14:55;;;;;;;6.85;2.20;;;15.90;38.90;;;;;;5075010;28;20418;-71
2022/04/05 10:17:26;;;;;;;4.75;1.85;;;16.00;39.10;;;;;;5074711;28;20029;-72
2022/04/05 10:19:54;;;;;;;5.15;1.67;;;16.10;39.10;;;;;;5074748;28;20016;-71
2022/04/05 10:22:22;;;;;;;5.15;2.10;;;16.10;38.90;;;;;;5074790;28;20036;-70
2022/04/05 10:24:52;;;;;;;3.63;1.60;;;16.20;38.10;;;;;;5074581;28;20032;-72
2022/04/05 10:27:21;;;;;;;6.40;2.47;;;16.30;38.40;;;;;;5073162;28;20024;-71
2022/04/05 10:30:03;;;;;;;6.63;2.40;;;16.40;38.70;;;;;;5074381;28;20477;-73
2022/04/05 10:32:34;;;;;;;7.15;1.88;;;16.50;39.30;;;;;;5074691;28;20013;-71
2022/04/05 10:35:06;;;;;;;7.40;1.90;;;16.50;38.10;;;;;;5074453;28;20108;-72
2022/04/05 10:37:37;;;;;;;9.52;1.95;;;16.60;37.40;;;;;;5074428;28;20036;-73
2022/04/05 10:40:03;;;;;;;4.30;1.65;;;16.70;36.40;;;;;;5074955;28;20013;-72
2022/04/05 10:42:36;;;;;;;5.43;2.13;;;16.70;36.40;;;;;;5074848;28;20105;-71
2022/04/05 10:45:07;;;;;;;3.97;1.50;;;16.70;36.50;;;;;;5074445;28;20051;-75
2022/04/05 10:47:53;;;;;;;5.22;1.80;;;16.90;35.60;;;;;;5074734;28;20383;-74
2022/04/05 10:50:19;;;;;;;5.10;1.60;;;16.90;34.90;;;;;;5074175;28;20024;-74
2022/04/05 10:52:48;;;;;;;8.13;1.80;;;16.90;35.10;;;;;;5073945;28;20469;-74
2022/04/05 10:55:20;;;;;;;8.10;2.22;;;17.00;35.00;;;;;;5073843;28;20024;-75
2022/04/05 10:57:46;;;;;;;6.47;1.80;;;17.00;34.90;;;;;;5073890;28;20039;-71
2022/04/05 11:00:26;;;;;;;7.93;2.03;;;17.10;33.40;;;;;;5073730;28;20530;-74
2022/04/05 11:02:52;;;;;;;3.88;1.83;;;17.10;34.60;;;;;;5074436;28;20090;-72
2022/04/05 11:05:19;;;;;;;5.50;2.25;;;17.30;35.50;;;;;;5072807;28;20029;-73
2022/04/05 11:07:59;;;;;;;7.03;2.05;;;17.40;35.60;;;;;;5074117;28;20102;-72
2022/04/05 11:10:37;;;;;;;5.57;2.40;;;17.50;35.50;;;;;;5074038;28;20044;-71
2022/04/05 11:13:03;;;;;;;9.38;2.30;;;17.60;35.00;;;;;;5073878;28;20020;-72
2022/04/05 11:15:54;;;;;;;6.75;2.38;;;17.70;35.30;;;;;;5073895;28;20042;-71
2022/04/05 11:18:21;;;;;;;14.48;2.75;;;17.80;34.90;;;;;;5074243;28;20032;-74
2022/04/05 11:20:49;;;;;;;5.85;2.13;;;17.80;35.20;;;;;;5074379;28;20028;-74
2022/04/05 11:23:20;;;;;;;7.80;1.70;;;17.90;35.20;;;;;;5074042;28;20477;-72
2022/04/05 11:25:46;;;;;;;5.07;1.92;;;17.90;32.90;;;;;;5056398;28;20028;-74
2022/04/05 11:28:21;;;;;;;6.63;2.22;;;17.90;33.30;;;;;;5074114;28;20501;-72
2022/04/05 11:31:02;;;;;;;5.90;2.00;;;18.00;34.00;;;;;;5073747;28;20032;-72
2022/04/05 11:33:31;;;;;;;5.05;2.05;;;18.00;32.80;;;;;;5073667;28;20038;-74
2022/04/05 11:36:15;;;;;;;6.00;1.90;;;18.10;32.60;;;;;;5073608;28;20082;-73
2022/04/05 11:38:49;;;;;;;5.07;1.80;;;18.20;33.90;;;;;;5073844;28;20481;-72
2022/04/05 11:41:27;;;;;;;6.78;2.30;;;18.20;33.10;;;;;;5073943;28;20031;-71
2022/04/05 11:43:55;;;;;;;5.60;2.10;;;18.30;33.20;;;;;;5072267;28;20036;-71
2022/04/05 11:46:35;;;;;;;5.63;2.10;;;18.40;32.60;;;;;;5073154;28;20135;-73
2022/04/05 11:49:14;;;;;;;3.80;1.83;;;18.50;32.30;;;;;;5073711;28;20542;-72
2022/04/05 11:51:45;;;;;;;5.45;2.00;;;18.60;32.40;;;;;;5073662;28;20024;-71
2022/04/05 11:54:13;;;;;;;8.75;2.45;;;18.60;32.60;;;;;;5072975;28;20477;-72
2022/04/05 11:56:41;;;;;;;8.15;3.55;;;18.60;32.70;;;;;;5072970;28;20040;-75
2022/04/05 11:59:09;;;;;;;12.27;5.00;;;18.70;32.90;;;;;;5072966;28;20058;-73
2022/04/05 12:01:39;;;;;;;7.45;2.00;;;18.80;33.00;;;;;;5073341;28;20373;-75
2022/04/05 12:04:09;;;;;;;6.50;2.10;;;18.90;32.80;;;;;;5073235;28;20021;-74
2022/04/05 12:06:38;;;;;;;5.05;2.38;;;18.90;32.40;;;;;;5073165;28;20039;-73
2022/04/05 12:09:12;;;;;;;6.25;2.28;;;19.10;32.00;;;;;;5073099;28;20024;-74
2022/04/05 12:11:40;;;;;;;5.88;2.78;;;19.20;31.90;;;;;;5072995;28;20032;-75
2022/04/05 12:14:09;;;;;;;9.20;2.42;;;19.30;31.20;;;;;;5072875;28;20123;-74
2022/04/05 12:16:56;;;;;;;6.05;2.55;;;19.40;31.40;;;;;;5073171;28;20033;-74
2022/04/05 12:19:21;;;;;;;8.60;3.20;;;19.50;30.80;;;;;;5073095;28;20025;-75
2022/04/05 12:22:00;;;;;;;5.68;2.20;;;19.50;31.50;;;;;;5073117;28;20101;-74
2022/04/05 12:24:27;;;;;;;6.28;2.15;;;19.60;31.00;;;;;;5072970;28;20058;-74
2022/04/05 12:26:56;;;;;;;7.90;3.13;;;19.60;30.00;;;;;;5072855;28;20032;-74
2022/04/05 12:29:22;;;;;;;4.80;1.95;;;19.50;29.80;;;;;;5072859;28;20462;-75
2022/04/05 12:31:48;;;;;;;7.75;2.25;;;19.60;29.80;;;;;;5072651;28;20469;-74
2022/04/05 12:34:15;;;;;;;5.90;2.00;;;19.60;29.90;;;;;;5072648;28;20025;-74
2022/04/05 12:36:42;;;;;;;7.47;2.75;;;19.70;29.70;;;;;;5072288;28;20045;-71
2022/04/05 12:39:21;;;;;;;8.98;2.35;;;19.80;30.00;;;;;;5072745;28;20024;-73
2022/04/05 12:41:53;;;;;;;5.22;2.30;;;19.80;29.70;;;;;;5072358;28;20024;-73
2022/04/05 12:44:26;;;;;;;9.75;2.45;;;19.90;29.60;;;;;;5072648;28;20054;-73
2022/04/05 12:47:14;;;;;;;8.35;2.20;;;20.00;30.70;;;;;;5072865;28;20044;-74